9VG weather

Campbell Field
Weirwood, Virginia, United States

Public forecast

Using degrees Fahrenheit for public forecast. Weather courtesy of forecast.io.

METAR (pilot weather report)

Closest report is Accomack County Airport, 12.6 nm (23.4 km) NNE. Retrieved 2019/09/21 09:35 UTC (17 minutes ago):

KMFV 210935Z AUTO 19005KT 7SM CLR 15/14 A3026 RMK AO2 T01450143

TAF (pilot weather forecast)

Forecast is more than 6 hours old.

Closest forecast is Langley Air Force Base, 32.2 nm (59.7 km) SW. Retrieved 2019/09/21 01:06 UTC (9 hours ago):

TAF KLFI 210100Z 2101/2207 VRB06KT 9999 SKC QNH3022INS TX27/2120Z TN14/2109Z LAST NO AMDS AFT 2101 NEXT 2309